createdAt,value
2019-01-19T00:00:30.028Z,83.20
2019-01-19T00:04:04.398Z,83.10
2019-01-19T00:07:00.668Z,82.90
2019-01-19T00:10:17.533Z,82.80
2019-01-19T00:13:47.616Z,82.80
2019-01-19T00:17:28.666Z,83.00
2019-01-19T00:20:52.152Z,83.20
2019-01-19T00:24:19.227Z,84.10
2019-01-19T00:27:31.514Z,84.50
2019-01-19T00:30:59.798Z,84.80
2019-01-19T00:34:04.049Z,84.70
2019-01-19T00:37:01.091Z,84.90
2019-01-19T00:40:36.971Z,85.30
2019-01-19T00:43:58.486Z,85.40
2019-01-19T00:47:17.238Z,85.50
2019-01-19T00:49:59.557Z,85.60
2019-01-19T00:52:56.423Z,86.00
2019-01-19T00:56:07.503Z,86.70
2019-01-19T00:59:08.030Z,87.30
2019-01-19T01:02:07.037Z,88.00
2019-01-19T01:05:34.887Z,88.30
2019-01-19T01:09:08.180Z,88.90
2019-01-19T01:12:31.720Z,89.10
2019-01-19T01:15:25.561Z,89.00
2019-01-19T01:18:36.771Z,88.80
2019-01-19T01:25:22.679Z,88.80
2019-01-19T01:28:30.980Z,88.80
2019-01-19T01:31:53.128Z,90.10
2019-01-19T01:34:59.702Z,89.20
2019-01-19T01:38:15.357Z,89.20
2019-01-19T01:41:45.679Z,89.30
2019-01-19T01:44:54.624Z,89.40
2019-01-19T01:48:16.140Z,89.70
2019-01-19T01:51:19.983Z,90.30
2019-01-19T01:54:38.433Z,90.00
2019-01-19T01:57:42.128Z,90.10
2019-01-19T02:00:51.174Z,90.20
2019-01-19T02:04:21.129Z,90.10
2019-01-19T02:07:28.282Z,90.10
2019-01-19T02:10:39.785Z,90.20
2019-01-19T02:13:33.503Z,90.10
2019-01-19T02:17:24.064Z,90.40
2019-01-19T02:20:30.293Z,90.30
2019-01-19T02:23:25.742Z,90.30
2019-01-19T02:26:43.217Z,90.40
2019-01-19T02:30:19.114Z,90.50
2019-01-19T02:33:30.171Z,90.60
2019-01-19T02:37:07.956Z,90.70
2019-01-19T02:40:18.876Z,91.00
2019-01-19T02:43:22.449Z,91.10
2019-01-19T02:46:11.045Z,91.20
2019-01-19T02:49:45.281Z,91.40
2019-01-19T02:52:52.522Z,91.60
2019-01-19T02:56:03.666Z,91.80
2019-01-19T02:59:39.804Z,92.20
2019-01-19T03:02:47.786Z,92.20
2019-01-19T03:05:40.436Z,92.30
2019-01-19T03:09:10.492Z,92.40
2019-01-19T03:12:34.331Z,92.50
2019-01-19T03:15:37.914Z,92.60
2019-01-19T03:19:24.958Z,92.60
2019-01-19T03:22:08.318Z,92.70
2019-01-19T03:25:25.198Z,92.70
2019-01-19T03:29:00.330Z,92.90
2019-01-19T03:32:18.092Z,92.90
2019-01-19T03:35:47.807Z,93.00
2019-01-19T03:39:03.019Z,93.10
2019-01-19T03:42:31.863Z,93.10
2019-01-19T03:45:17.070Z,93.20
2019-01-19T03:48:13.162Z,93.20
2019-01-19T03:51:41.726Z,93.20
2019-01-19T03:54:53.270Z,93.30
2019-01-19T03:57:32.175Z,93.40
2019-01-19T04:00:41.071Z,93.50
2019-01-19T04:03:51.317Z,93.60
2019-01-19T04:07:00.366Z,93.60
2019-01-19T04:10:07.695Z,93.60
2019-01-19T04:13:35.581Z,93.60
2019-01-19T04:17:23.508Z,93.70
2019-01-19T04:20:43.762Z,93.70
2019-01-19T04:23:11.146Z,94.20
2019-01-19T04:26:35.778Z,94.10
2019-01-19T04:29:03.336Z,94.10
2019-01-19T04:31:30.924Z,94.10
2019-01-19T04:33:59.350Z,94.10
2019-01-19T04:36:27.778Z,94.10
2019-01-19T04:38:55.405Z,94.10
2019-01-19T04:41:22.906Z,94.20
2019-01-19T04:43:50.428Z,94.20
2019-01-19T04:46:18.068Z,94.20
2019-01-19T04:48:45.821Z,94.20
2019-01-19T04:51:13.178Z,94.20
2019-01-19T04:53:40.523Z,94.20
2019-01-19T04:56:08.124Z,94.30
2019-01-19T04:58:35.679Z,94.20
2019-01-19T05:01:03.377Z,94.20
2019-01-19T05:03:30.746Z,94.20
2019-01-19T05:05:58.281Z,94.10
2019-01-19T05:08:25.843Z,94.30
2019-01-19T05:10:53.478Z,94.50
2019-01-19T05:13:21.544Z,94.60
2019-01-19T05:15:48.859Z,94.50
2019-01-19T05:18:16.830Z,94.50
2019-01-19T05:20:44.393Z,94.50
2019-01-19T05:23:11.933Z,94.50
2019-01-19T05:25:39.416Z,94.70
2019-01-19T05:28:07.330Z,94.60
2019-01-19T05:30:34.909Z,94.70
2019-01-19T05:33:02.395Z,94.70
2019-01-19T05:35:30.051Z,94.70
2019-01-19T05:37:57.714Z,94.70
2019-01-19T05:40:25.131Z,94.70
2019-01-19T05:42:53.899Z,94.80
2019-01-19T05:45:21.302Z,94.70
2019-01-19T05:47:49.061Z,94.80
2019-01-19T05:50:19.963Z,94.70
2019-01-19T05:52:47.644Z,94.80
2019-01-19T05:55:15.439Z,94.80
2019-01-19T05:57:43.079Z,94.80
2019-01-19T06:00:21.968Z,94.80
2019-01-19T06:02:49.654Z,94.80
2019-01-19T06:05:17.509Z,94.80
2019-01-19T06:07:45.150Z,94.70
2019-01-19T06:10:14.151Z,94.80
2019-01-19T06:12:41.530Z,94.80
2019-01-19T06:15:11.828Z,94.80
2019-01-19T06:17:39.407Z,94.80
2019-01-19T06:20:08.780Z,94.80
2019-01-19T06:22:36.551Z,94.80
2019-01-19T06:25:05.536Z,94.80
2019-01-19T06:27:33.340Z,94.80
2019-01-19T06:30:00.725Z,94.80
2019-01-19T06:32:28.463Z,94.80
2019-01-19T06:34:55.983Z,94.90
2019-01-19T06:37:23.528Z,94.80
2019-01-19T06:39:51.930Z,94.80
2019-01-19T06:42:19.373Z,94.70
2019-01-19T06:44:46.848Z,94.70
2019-01-19T06:47:14.360Z,94.70
2019-01-19T06:49:41.869Z,94.70
2019-01-19T06:52:11.042Z,94.70
2019-01-19T06:54:38.866Z,94.60
2019-01-19T06:57:06.229Z,94.60
2019-01-19T06:59:34.583Z,94.70
2019-01-19T07:02:02.782Z,94.60
2019-01-19T07:04:30.112Z,94.60
2019-01-19T07:07:02.519Z,94.60
2019-01-19T07:09:27.610Z,94.60
2019-01-19T07:11:55.756Z,94.40
2019-01-19T07:14:23.159Z,94.60
2019-01-19T07:16:50.891Z,94.70
2019-01-19T07:19:18.437Z,94.70
2019-01-19T07:21:46.066Z,94.70
2019-01-19T07:24:13.514Z,94.60
2019-01-19T07:26:41.411Z,94.60
2019-01-19T07:29:09.030Z,94.70
2019-01-19T07:31:36.526Z,94.70
2019-01-19T07:34:04.161Z,94.60
2019-01-19T07:36:32.230Z,94.50
2019-01-19T07:38:59.718Z,94.50
2019-01-19T07:41:29.410Z,94.50
2019-01-19T07:44:01.681Z,94.30
2019-01-19T07:46:30.500Z,94.10
2019-01-19T07:49:00.734Z,93.70
2019-01-19T07:51:28.227Z,93.50
2019-01-19T07:54:05.681Z,93.30
2019-01-19T07:56:33.283Z,92.90
2019-01-19T07:59:01.254Z,91.90
2019-01-19T08:01:28.843Z,90.20
2019-01-19T08:04:04.044Z,83.50
2019-01-19T08:06:38.484Z,76.90
2019-01-19T08:09:08.556Z,71.40
2019-01-19T08:11:36.080Z,66.00
2019-01-19T08:14:05.782Z,59.70
2019-01-19T08:16:35.844Z,56.30
2019-01-19T08:19:03.649Z,53.20
2019-01-19T08:21:31.275Z,49.10
2019-01-19T08:23:59.304Z,47.80
2019-01-19T08:26:27.817Z,46.10
2019-01-19T08:28:55.777Z,43.30
2019-01-19T08:31:24.842Z,42.00
2019-01-19T08:33:53.293Z,39.50
2019-01-19T08:36:21.090Z,38.90
2019-01-19T08:38:48.770Z,38.00
2019-01-19T08:41:16.539Z,35.20
2019-01-19T08:43:50.791Z,34.50
2019-01-19T08:46:18.378Z,32.80
2019-01-19T08:48:47.599Z,31.70
2019-01-19T08:51:15.313Z,30.60
2019-01-19T08:53:42.794Z,31.40
2019-01-19T08:56:10.595Z,31.30
2019-01-19T08:58:38.167Z,30.20
2019-01-19T09:01:05.760Z,30.00
2019-01-19T09:03:33.253Z,29.50
2019-01-19T09:06:00.641Z,29.20
2019-01-19T09:08:28.131Z,28.60
2019-01-19T09:10:55.585Z,28.20
2019-01-19T09:13:23.261Z,27.70
2019-01-19T09:15:56.464Z,27.70
2019-01-19T09:18:24.025Z,26.00
2019-01-19T09:20:51.361Z,26.00
2019-01-19T09:23:26.727Z,25.60
2019-01-19T09:25:54.309Z,24.90
2019-01-19T09:28:21.705Z,24.60
2019-01-19T09:30:49.036Z,23.90
2019-01-19T09:33:17.129Z,22.90
2019-01-19T09:35:45.129Z,21.90
2019-01-19T09:38:12.731Z,21.30
2019-01-19T09:40:40.314Z,21.20
2019-01-19T09:43:07.872Z,21.20
2019-01-19T09:45:37.726Z,21.20
2019-01-19T09:48:05.254Z,21.00
2019-01-19T09:50:32.871Z,20.80
2019-01-19T09:53:00.765Z,20.30
2019-01-19T09:55:28.417Z,19.60
2019-01-19T09:57:56.311Z,19.50
2019-01-19T10:00:23.891Z,18.70
2019-01-19T10:02:54.942Z,19.00
2019-01-19T10:05:22.464Z,19.20
2019-01-19T10:07:49.983Z,19.30
2019-01-19T10:10:17.823Z,20.00
2019-01-19T10:12:45.351Z,20.00
2019-01-19T10:15:14.301Z,19.60
2019-01-19T10:17:42.817Z,18.80
2019-01-19T10:20:14.192Z,18.40
2019-01-19T10:22:41.770Z,18.50
2019-01-19T10:25:10.506Z,18.60
2019-01-19T10:27:38.159Z,18.40
2019-01-19T10:30:10.667Z,17.60
2019-01-19T10:32:38.353Z,18.00
2019-01-19T10:35:08.153Z,17.90
2019-01-19T10:37:36.514Z,17.20
2019-01-19T10:40:05.458Z,17.20
2019-01-19T10:42:32.951Z,17.30
2019-01-19T10:45:00.754Z,17.30
2019-01-19T10:47:28.237Z,16.70
2019-01-19T10:49:56.634Z,16.10
2019-01-19T10:52:24.233Z,16.20
2019-01-19T10:54:51.591Z,16.20
2019-01-19T10:57:18.969Z,16.60
2019-01-19T10:59:46.404Z,16.30
2019-01-19T11:02:13.857Z,16.90
2019-01-19T11:04:41.568Z,17.10
2019-01-19T11:07:09.086Z,17.10
2019-01-19T11:09:36.535Z,17.10
2019-01-19T11:12:05.258Z,17.60
2019-01-19T11:14:32.718Z,17.80
2019-01-19T11:17:00.274Z,17.20
2019-01-19T11:19:27.621Z,16.90
2019-01-19T11:21:54.975Z,17.10
2019-01-19T11:24:22.528Z,17.40
2019-01-19T11:26:50.116Z,17.30
2019-01-19T11:29:17.563Z,16.90
2019-01-19T11:31:45.008Z,17.10
2019-01-19T11:34:12.538Z,17.40
2019-01-19T11:36:40.522Z,17.30
2019-01-19T11:39:08.183Z,17.00
2019-01-19T11:41:36.942Z,16.50
2019-01-19T11:44:06.590Z,16.00
2019-01-19T11:46:34.053Z,15.90
2019-01-19T11:49:04.676Z,16.40
2019-01-19T11:51:32.513Z,16.80
2019-01-19T11:54:00.414Z,16.70
2019-01-19T11:56:27.912Z,16.60
2019-01-19T11:58:55.501Z,16.20
2019-01-19T12:01:22.904Z,16.10
2019-01-19T12:03:50.317Z,16.10
2019-01-19T12:06:17.767Z,16.00
2019-01-19T12:08:45.259Z,15.70
2019-01-19T12:11:12.635Z,15.70
2019-01-19T12:13:40.366Z,15.80
2019-01-19T12:16:09.812Z,15.80
2019-01-19T12:18:37.690Z,15.70
2019-01-19T12:21:05.197Z,15.70
2019-01-19T12:23:32.903Z,16.00
2019-01-19T12:26:00.366Z,15.90
2019-01-19T12:28:28.010Z,15.40
2019-01-19T12:30:55.515Z,14.90
2019-01-19T12:33:22.969Z,14.90
2019-01-19T12:35:50.373Z,14.60
2019-01-19T12:38:17.756Z,14.90
2019-01-19T12:40:45.137Z,15.10
2019-01-19T12:43:18.865Z,15.30
2019-01-19T12:45:53.333Z,15.40
2019-01-19T12:48:20.880Z,15.60
2019-01-19T12:50:48.612Z,15.40
2019-01-19T12:53:16.075Z,15.20
2019-01-19T12:55:43.688Z,14.90
2019-01-19T12:58:11.384Z,14.80
2019-01-19T13:00:39.008Z,14.80
2019-01-19T13:03:07.058Z,15.20
2019-01-19T13:05:46.435Z,15.60
2019-01-19T13:08:17.182Z,16.20
2019-01-19T13:10:51.065Z,16.60
2019-01-19T13:13:29.878Z,16.60
2019-01-19T13:17:09.952Z,16.30
2019-01-19T13:20:37.360Z,16.20
2019-01-19T13:24:15.075Z,15.70
2019-01-19T13:27:34.594Z,15.70
2019-01-19T13:30:42.676Z,15.80
2019-01-19T13:34:32.799Z,16.10
2019-01-19T13:37:42.016Z,16.60
2019-01-19T13:40:51.468Z,17.10
2019-01-19T13:44:43.697Z,17.00
2019-01-19T13:47:55.545Z,16.90
2019-01-19T13:51:13.815Z,17.00
2019-01-19T13:54:41.747Z,17.70
2019-01-19T13:58:09.426Z,18.70
2019-01-19T14:01:23.443Z,20.30
2019-01-19T14:04:53.434Z,19.70
2019-01-19T14:08:32.920Z,19.30
2019-01-19T14:11:19.958Z,18.90
2019-01-19T14:14:42.069Z,18.50
2019-01-19T14:18:06.767Z,18.30
2019-01-19T14:21:03.069Z,18.20
2019-01-19T14:24:01.808Z,19.70
2019-01-19T14:27:02.826Z,19.90
2019-01-19T14:30:13.028Z,20.00
2019-01-19T14:33:16.120Z,21.00
2019-01-19T14:37:00.273Z,22.60
2019-01-19T14:40:25.008Z,24.00
2019-01-19T14:44:33.823Z,26.10
2019-01-19T14:46:55.727Z,28.20
2019-01-19T14:50:26.500Z,29.70
2019-01-19T14:53:32.779Z,31.30
2019-01-19T14:57:10.672Z,33.70
2019-01-19T15:00:14.498Z,36.10
2019-01-19T15:03:29.278Z,38.60
2019-01-19T15:06:17.702Z,39.70
2019-01-19T15:09:05.767Z,41.80
2019-01-19T15:12:33.931Z,43.70
2019-01-19T15:16:01.842Z,44.70
2019-01-19T15:18:57.821Z,47.00
2019-01-19T15:22:53.106Z,48.30
2019-01-19T15:26:22.542Z,50.10
2019-01-19T15:29:46.945Z,50.30
2019-01-19T15:33:19.455Z,49.70
2019-01-19T15:36:50.018Z,51.00
2019-01-19T15:40:05.492Z,51.70
2019-01-19T15:42:46.191Z,52.80
2019-01-19T15:46:02.990Z,53.30
2019-01-19T15:49:01.236Z,54.40
2019-01-19T15:52:16.286Z,56.00
2019-01-19T15:55:38.219Z,56.90
2019-01-19T15:58:42.282Z,58.90
2019-01-19T16:01:59.492Z,59.90
2019-01-19T16:04:51.207Z,60.50
2019-01-19T16:08:05.668Z,60.40
2019-01-19T16:10:52.547Z,61.20
2019-01-19T16:13:36.954Z,64.10
2019-01-19T16:16:59.492Z,65.20
2019-01-19T16:20:39.044Z,68.70
2019-01-19T16:24:00.039Z,68.50
2019-01-19T16:27:16.353Z,69.20
2019-01-19T16:30:29.660Z,70.30
2019-01-19T16:33:41.402Z,70.40
2019-01-19T16:36:48.758Z,70.80
2019-01-19T16:40:10.307Z,71.10
2019-01-19T16:43:21.838Z,71.70
2019-01-19T16:47:17.184Z,71.50
2019-01-19T16:50:42.678Z,71.70
2019-01-19T16:54:18.942Z,71.90
2019-01-19T16:58:14.112Z,72.80
2019-01-19T17:01:14.312Z,74.20
2019-01-19T17:04:23.939Z,74.30
2019-01-19T17:07:27.595Z,74.60
2019-01-19T17:10:33.993Z,75.80
2019-01-19T17:13:39.153Z,76.00
2019-01-19T17:16:49.729Z,75.60
2019-01-19T17:24:51.796Z,77.00
2019-01-19T17:28:07.345Z,78.40
2019-01-19T17:31:12.909Z,78.30
2019-01-19T17:34:17.887Z,78.70
2019-01-19T17:37:25.756Z,80.40
2019-01-19T17:41:06.819Z,81.70
2019-01-19T17:44:23.957Z,80.60
2019-01-19T17:47:49.547Z,80.60
2019-01-19T17:51:04.995Z,82.20
2019-01-19T17:54:07.870Z,81.20
2019-01-19T17:56:46.261Z,81.90
2019-01-19T18:00:31.894Z,82.60
2019-01-19T18:04:00.614Z,82.30
2019-01-19T18:07:19.316Z,82.90
2019-01-19T18:10:39.382Z,84.10
2019-01-19T18:13:55.067Z,83.50
2019-01-19T18:17:41.769Z,83.50
2019-01-19T18:20:55.859Z,84.00
2019-01-19T18:23:59.328Z,84.80
2019-01-19T18:26:41.769Z,85.30
2019-01-19T18:30:23.517Z,85.00
2019-01-19T18:33:47.246Z,85.20
2019-01-19T18:36:40.468Z,85.00
2019-01-19T18:40:13.876Z,85.50
2019-01-19T18:43:08.260Z,85.70
2019-01-19T18:46:05.871Z,86.70
2019-01-19T18:49:31.739Z,86.80
2019-01-19T18:52:42.597Z,90.00
2019-01-19T18:56:14.617Z,90.90
2019-01-19T18:59:23.078Z,89.00
2019-01-19T19:02:26.113Z,88.60
2019-01-19T19:05:49.137Z,89.40
2019-01-19T19:09:26.849Z,90.80
2019-01-19T19:12:29.204Z,90.60
2019-01-19T19:16:05.914Z,91.10
2019-01-19T19:19:10.248Z,90.10
2019-01-19T19:22:09.832Z,90.20
2019-01-19T19:25:06.661Z,90.10
2019-01-19T19:28:21.638Z,90.20
2019-01-19T19:31:35.143Z,90.90
2019-01-19T19:34:56.418Z,91.10
2019-01-19T19:38:21.986Z,90.30
2019-01-19T19:41:41.418Z,90.00
2019-01-19T19:45:11.841Z,89.60
2019-01-19T19:48:45.801Z,89.90
2019-01-19T19:51:59.407Z,90.20
2019-01-19T19:54:30.285Z,90.20
2019-01-19T19:56:58.474Z,90.40
2019-01-19T19:59:27.367Z,90.30
2019-01-19T20:01:57.218Z,90.30
2019-01-19T20:04:28.892Z,90.60
2019-01-19T20:06:57.665Z,90.70
2019-01-19T20:09:25.407Z,90.60
2019-01-19T20:11:57.043Z,90.70
2019-01-19T20:14:24.852Z,90.60
2019-01-19T20:16:53.081Z,90.70
2019-01-19T20:19:20.712Z,90.90
2019-01-19T20:21:48.718Z,91.10
2019-01-19T20:24:16.838Z,91.20
2019-01-19T20:26:44.496Z,91.30
2019-01-19T20:29:16.831Z,91.40
2019-01-19T20:31:47.616Z,91.30
2019-01-19T20:34:15.934Z,91.20
2019-01-19T20:36:44.682Z,91.20
2019-01-19T20:39:30.526Z,91.20
2019-01-19T20:41:58.934Z,91.20
2019-01-19T20:44:27.215Z,91.40
2019-01-19T20:46:57.882Z,91.30
2019-01-19T20:49:25.812Z,91.20
2019-01-19T20:51:53.413Z,91.20
2019-01-19T20:54:21.824Z,91.30
2019-01-19T20:56:49.244Z,91.20
2019-01-19T20:59:16.833Z,91.30
2019-01-19T21:01:44.704Z,91.30
2019-01-19T21:04:15.985Z,91.30
2019-01-19T21:06:55.488Z,91.30
2019-01-19T21:09:28.153Z,91.30
2019-01-19T21:11:56.911Z,91.50
2019-01-19T21:14:24.900Z,91.60
2019-01-19T21:16:53.374Z,91.70
2019-01-19T21:19:20.825Z,91.90
2019-01-19T21:21:48.289Z,91.80
2019-01-19T21:24:16.674Z,91.80
2019-01-19T21:26:44.711Z,91.90
2019-01-19T21:29:12.105Z,91.90
2019-01-19T21:31:39.746Z,91.90
2019-01-19T21:34:07.114Z,92.00
2019-01-19T21:36:34.751Z,92.10
2019-01-19T21:39:07.379Z,92.10
2019-01-19T21:41:35.593Z,92.10
2019-01-19T21:44:03.727Z,92.00
2019-01-19T21:46:32.162Z,91.90
2019-01-19T21:48:59.524Z,91.80
2019-01-19T21:51:27.033Z,91.70
2019-01-19T21:53:54.506Z,91.70
2019-01-19T21:56:21.942Z,91.70
2019-01-19T21:58:50.217Z,91.70
2019-01-19T22:01:17.685Z,91.70
2019-01-19T22:03:45.383Z,91.70
2019-01-19T22:06:12.883Z,91.70
2019-01-19T22:08:40.686Z,91.70
2019-01-19T22:11:08.469Z,91.80
2019-01-19T22:13:35.915Z,91.90
2019-01-19T22:16:05.275Z,91.90
2019-01-19T22:18:33.738Z,91.90
2019-01-19T22:21:01.171Z,92.00
2019-01-19T22:23:28.624Z,91.90
2019-01-19T22:25:56.544Z,92.10
2019-01-19T22:28:24.477Z,92.20
2019-01-19T22:30:52.046Z,92.30
2019-01-19T22:33:19.923Z,92.50
2019-01-19T22:35:47.536Z,92.90
2019-01-19T22:38:15.171Z,92.80
2019-01-19T22:40:42.646Z,92.80
2019-01-19T22:43:15.726Z,92.80
2019-01-19T22:45:43.150Z,92.70
2019-01-19T22:48:11.010Z,92.70
2019-01-19T22:50:38.368Z,92.80
2019-01-19T22:53:05.848Z,92.80
2019-01-19T22:55:33.220Z,92.70
2019-01-19T22:58:00.584Z,92.70
2019-01-19T23:00:59.357Z,92.30
2019-01-19T23:03:30.081Z,91.90
2019-01-19T23:05:57.649Z,91.70
2019-01-19T23:08:25.329Z,91.70
2019-01-19T23:10:52.924Z,91.60
2019-01-19T23:13:20.357Z,91.30
2019-01-19T23:15:47.944Z,91.10
2019-01-19T23:18:15.642Z,91.30
2019-01-19T23:20:43.166Z,91.10
2019-01-19T23:23:10.613Z,91.20
2019-01-19T23:25:37.947Z,91.20
2019-01-19T23:28:05.792Z,91.50
2019-01-19T23:30:33.240Z,91.40
2019-01-19T23:33:01.258Z,91.60
2019-01-19T23:35:29.076Z,91.60
2019-01-19T23:37:56.525Z,91.40
2019-01-19T23:40:24.088Z,91.40
2019-01-19T23:42:51.706Z,91.40
2019-01-19T23:45:19.682Z,91.30
2019-01-19T23:47:47.273Z,91.40
2019-01-19T23:50:14.874Z,91.20
2019-01-19T23:52:42.433Z,91.30
2019-01-19T23:55:10.128Z,91.40
2019-01-19T23:57:37.604Z,91.10
